Time;durP1;ratioP1;P1;durP2;ratioP2;P2;SDS_P1;SDS_P2;PMS_P1;PMS_P2;Temp;Humidity;BMP_temperature;BMP_pressure;BME280_temperature;BME280_humidity;BME280_pressure;Samples;Min_cycle;Max_cycle;Signal;HPM_P1;HPM_P2
2024/01/11 00:00:28;;;;;;;;;46.00;38.00;;;;;-0.03;82.33;102630.03;5113678;27;45313;-71
2024/01/11 00:02:54;;;;;;;;;55.50;42.50;;;;;0.00;84.16;102637.91;5101608;27;45356;-71
2024/01/11 00:05:19;;;;;;;;;54.00;45.00;;;;;-0.05;83.97;102628.22;5097189;27;45364;-71
2024/01/11 00:07:44;;;;;;;;;52.50;43.25;;;;;0.00;83.98;102634.44;5099702;27;45313;-71
2024/01/11 00:10:10;;;;;;;;;54.50;42.50;;;;;-0.02;83.08;102639.59;5090115;27;45320;-71
2024/01/11 00:12:35;;;;;;;;;58.75;41.25;;;;;0.06;84.25;102647.59;5099062;27;45380;-71
2024/01/11 00:15:01;;;;;;;;;61.00;41.25;;;;;0.04;83.47;102659.66;5090331;27;45226;-72
2024/01/11 00:17:26;;;;;;;;;52.75;44.25;;;;;-0.04;84.13;102633.47;5106251;27;45310;-72
2024/01/11 00:19:52;;;;;;;;;44.50;38.00;;;;;0.02;83.09;102630.16;5114216;27;45702;-71
2024/01/11 00:22:17;;;;;;;;;57.00;43.00;;;;;0.01;83.85;102630.97;5103227;27;45463;-72
2024/01/11 00:24:43;;;;;;;;;55.25;43.75;;;;;-0.03;83.55;102623.94;5100235;27;47985;-71
2024/01/11 00:27:08;;;;;;;;;53.00;42.75;;;;;0.01;83.33;102633.56;5108614;27;45275;-72
2024/01/11 00:29:35;;;;;;;;;47.25;42.00;;;;;-0.04;83.00;102630.88;5093356;27;45580;-72
2024/01/11 00:32:00;;;;;;;;;66.25;47.75;;;;;-0.03;82.97;102640.41;5095335;27;45374;-71
2024/01/11 00:34:26;;;;;;;;;53.75;43.50;;;;;0.03;84.63;102644.03;5092444;27;46847;-72
2024/01/11 00:36:51;;;;;;;;;53.25;43.00;;;;;-0.27;83.89;102608.63;5101258;27;45348;-71
2024/01/11 00:39:16;;;;;;;;;52.75;44.75;;;;;-0.07;86.33;102640.31;5100781;27;45275;-71
2024/01/11 00:41:42;;;;;;;;;61.25;42.75;;;;;-0.07;84.47;102654.22;5101141;27;45532;-71
2024/01/11 00:44:07;;;;;;;;;42.75;31.25;;;;;-0.02;84.00;102650.00;5113259;27;47859;-72
2024/01/11 00:46:34;;;;;;;;;38.25;34.75;;;;;-0.20;84.71;102609.66;5093278;27;45384;-72
2024/01/11 00:48:59;;;;;;;;;47.75;41.50;;;;;0.07;85.10;102653.66;5101162;27;45347;-72
2024/01/11 00:51:24;;;;;;;;;50.75;41.25;;;;;-0.12;83.37;102628.91;5099828;27;45245;-72
2024/01/11 00:53:50;;;;;;;;;59.25;41.75;;;;;0.20;83.81;102667.00;5099820;27;45435;-71
2024/01/11 00:56:19;;;;;;;;;52.25;43.75;;;;;0.12;84.58;102654.66;5088257;27;45262;-71
2024/01/11 00:58:45;;;;;;;;;50.25;42.25;;;;;0.28;83.34;102680.22;5117108;27;45378;-72
2024/01/11 01:01:10;;;;;;;;;53.00;42.75;;;;;0.20;84.08;102660.91;5115917;27;45182;-72
2024/01/11 01:03:36;;;;;;;;;51.00;43.00;;;;;0.25;83.74;102662.81;5082052;27;46366;-72
2024/01/11 01:06:02;;;;;;;;;52.00;44.25;;;;;0.38;83.04;102677.88;5091727;27;45307;-71
2024/01/11 01:08:28;;;;;;;;;46.25;39.50;;;;;0.24;82.94;102667.97;5096909;27;45452;-71
2024/01/11 01:10:53;;;;;;;;;51.00;39.75;;;;;0.47;82.69;102677.22;5090238;27;45312;-72
2024/01/11 01:13:18;;;;;;;;;41.50;37.50;;;;;0.42;82.63;102665.84;5092967;27;45356;-72
2024/01/11 01:15:44;;;;;;;;;57.25;44.00;;;;;0.52;82.45;102686.88;5097883;27;45334;-71
2024/01/11 01:18:09;;;;;;;;;51.00;41.75;;;;;0.53;81.72;102673.03;5096011;27;45335;-71
2024/01/11 01:20:34;;;;;;;;;49.75;40.75;;;;;0.56;84.60;102676.56;5092024;27;45459;-73
2024/01/11 01:23:00;;;;;;;;;48.00;39.25;;;;;0.50;82.97;102709.41;5090143;27;46225;-72
2024/01/11 01:25:25;;;;;;;;;48.25;43.00;;;;;0.65;82.25;102687.19;5096985;27;45302;-71
2024/01/11 01:27:51;;;;;;;;;54.50;43.50;;;;;0.61;81.73;102680.16;5095701;27;45349;-71
2024/01/11 01:30:16;;;;;;;;;60.25;45.50;;;;;0.40;81.96;102644.06;5112679;27;45486;-72
2024/01/11 01:32:41;;;;;;;;;58.00;44.50;;;;;0.68;82.18;102684.66;5093977;27;46317;-72
2024/01/11 01:35:07;;;;;;;;;54.50;43.00;;;;;0.41;81.54;102653.66;5099526;27;45310;-72
2024/01/11 01:37:33;;;;;;;;;51.00;43.25;;;;;0.59;80.77;102676.66;5092502;27;45383;-70
2024/01/11 01:39:58;;;;;;;;;56.50;42.25;;;;;0.56;82.31;102692.19;5094450;27;45211;-72
2024/01/11 01:42:24;;;;;;;;;50.25;42.00;;;;;0.58;81.67;102696.59;5095181;27;45315;-72
2024/01/11 01:44:49;;;;;;;;;51.75;42.75;;;;;0.53;81.59;102696.47;5091790;27;45385;-72
2024/01/11 01:47:17;;;;;;;;;59.00;45.75;;;;;0.44;82.85;102682.34;5087106;27;45355;-72
2024/01/11 01:49:44;;;;;;;;;52.25;42.50;;;;;0.45;81.58;102700.63;5085577;27;45572;-72
2024/01/11 01:52:10;;;;;;;;;52.00;44.00;;;;;0.43;82.68;102707.50;5098817;27;45386;-72
2024/01/11 01:54:36;;;;;;;;;56.25;40.75;;;;;0.38;82.92;102701.31;5099319;27;45304;-72
2024/01/11 01:57:03;;;;;;;;;50.00;41.50;;;;;0.36;82.29;102709.94;5086672;27;45345;-72
2024/01/11 01:59:30;;;;;;;;;56.50;42.75;;;;;0.10;82.72;102675.41;5097787;27;45582;-72
2024/01/11 02:01:56;;;;;;;;;65.50;44.75;;;;;0.34;82.48;102722.00;5099279;27;46368;-72
2024/01/11 02:04:22;;;;;;;;;51.50;42.25;;;;;-0.12;84.04;102652.31;5093245;27;45508;-72
2024/01/11 02:06:49;;;;;;;;;56.75;44.50;;;;;0.37;84.30;102732.47;5081419;27;45352;-72
2024/01/11 02:09:17;;;;;;;;;51.25;43.25;;;;;0.06;82.78;102690.94;5087706;27;45255;-72
2024/01/11 02:11:44;;;;;;;;;48.75;43.25;;;;;0.03;83.29;102694.34;5099387;27;45461;-72
2024/01/11 02:14:10;;;;;;;;;46.25;41.00;;;;;0.30;83.62;102740.97;5089822;27;45406;-72
2024/01/11 02:16:36;;;;;;;;;56.00;43.50;;;;;0.17;83.50;102707.66;5096211;27;45552;-72
2024/01/11 02:19:03;;;;;;;;;44.25;41.00;;;;;0.26;84.00;102749.56;5090535;27;45305;-72
2024/01/11 02:21:30;;;;;;;;;38.25;36.50;;;;;0.24;83.41;102736.50;5099750;27;45540;-72
2024/01/11 02:24:06;;;;;;;;;42.25;37.25;;;;;0.19;83.58;102732.03;5095942;27;45254;-71
2024/01/11 02:26:32;;;;;;;;;48.00;37.50;;;;;0.20;84.32;102750.25;5106532;27;45613;-71
2024/01/11 02:28:57;;;;;;;;;61.25;44.00;;;;;0.19;83.61;102734.63;5102749;27;45420;-71
2024/01/11 02:31:24;;;;;;;;;51.75;42.50;;;;;0.15;83.33;102741.47;5103159;27;45261;-71
2024/01/11 02:33:51;;;;;;;;;50.25;44.00;;;;;0.14;84.16;102744.91;5111603;27;45422;-71
2024/01/11 02:36:16;;;;;;;;;59.00;46.75;;;;;0.12;84.66;102743.09;5090531;27;45498;-71
2024/01/11 02:38:42;;;;;;;;;45.00;40.00;;;;;0.17;84.78;102751.91;5083185;27;45498;-71
2024/01/11 02:41:08;;;;;;;;;53.50;44.25;;;;;0.04;84.34;102732.50;5099714;27;45400;-71
2024/01/11 02:43:35;;;;;;;;;53.00;43.75;;;;;0.12;84.93;102744.00;5102381;27;45325;-71
2024/01/11 02:46:01;;;;;;;;;42.75;38.75;;;;;0.14;83.95;102752.72;5118883;27;45284;-71
2024/01/11 02:48:30;;;;;;;;;47.50;42.75;;;;;0.15;84.23;102756.19;5103043;27;45198;-71
2024/01/11 02:50:57;;;;;;;;;51.25;42.00;;;;;0.14;85.49;102763.09;5102343;27;45653;-71
2024/01/11 02:53:23;;;;;;;;;60.00;41.75;;;;;-0.20;86.03;102696.34;5102398;27;45375;-71
2024/01/11 02:55:49;;;;;;;;;47.25;42.00;;;;;0.06;85.24;102743.84;5102408;27;45427;-70
2024/01/11 02:58:14;;;;;;;;;43.50;33.50;;;;;0.10;85.67;102756.06;5100679;27;45448;-71
2024/01/11 03:00:40;;;;;;;;;56.50;46.00;;;;;0.04;84.73;102748.09;5108921;27;45237;-70
2024/01/11 03:03:05;;;;;;;;;61.25;44.75;;;;;0.03;85.43;102746.34;5102379;27;45363;-70
2024/01/11 03:05:31;;;;;;;;;58.00;44.75;;;;;-0.03;84.43;102747.06;5100243;27;45227;-71
2024/01/11 03:07:56;;;;;;;;;50.25;43.50;;;;;0.00;86.71;102744.53;5091683;27;45804;-71
2024/01/11 03:10:21;;;;;;;;;58.50;42.25;;;;;0.00;85.90;102764.47;5095873;27;45384;-71
2024/01/11 03:12:49;;;;;;;;;49.00;39.25;;;;;0.03;86.02;102759.38;5097473;27;45937;-71
2024/01/11 03:15:15;;;;;;;;;43.50;38.75;;;;;-0.09;85.82;102746.88;5102796;27;45495;-71
2024/01/11 03:17:40;;;;;;;;;45.75;40.50;;;;;-0.05;85.40;102758.25;5090866;27;45342;-71
2024/01/11 03:20:06;;;;;;;;;57.75;46.25;;;;;-0.27;86.97;102733.41;5116368;27;46911;-70
2024/01/11 03:22:32;;;;;;;;;50.00;40.50;;;;;-0.05;87.10;102766.94;5089027;27;45302;-71
2024/01/11 03:24:57;;;;;;;;;68.25;45.50;;;;;-0.05;86.16;102761.75;5101986;27;45213;-70
2024/01/11 03:27:22;;;;;;;;;51.75;44.25;;;;;-0.10;86.29;102759.88;5090818;27;45227;-70
2024/01/11 03:29:49;;;;;;;;;52.50;41.25;;;;;-0.12;86.82;102758.91;5088231;27;46080;-71
2024/01/11 03:32:14;;;;;;;;;52.25;43.75;;;;;-0.10;87.81;102762.47;5100541;27;45411;-70
2024/01/11 03:34:40;;;;;;;;;52.00;43.75;;;;;-0.15;87.20;102761.44;5098274;27;45238;-70
2024/01/11 03:37:05;;;;;;;;;46.00;41.25;;;;;-0.39;86.80;102726.97;5100679;27;45487;-71
2024/01/11 03:39:31;;;;;;;;;55.00;43.75;;;;;-0.12;87.24;102772.81;5098087;27;46238;-71
2024/01/11 03:41:56;;;;;;;;;53.75;43.50;;;;;-0.17;88.98;102766.63;5086658;27;45321;-71
2024/01/11 03:44:22;;;;;;;;;50.75;41.50;;;;;-0.21;87.34;102769.06;5098082;27;45225;-70
2024/01/11 03:46:48;;;;;;;;;50.25;39.75;;;;;-0.19;89.40;102786.47;5096010;27;45426;-70
2024/01/11 03:49:13;;;;;;;;;58.25;41.75;;;;;-0.52;89.68;102723.13;5096762;27;45472;-71
2024/01/11 03:51:38;;;;;;;;;46.00;40.00;;;;;-0.27;89.40;102769.78;5091898;27;45228;-71
2024/01/11 03:54:04;;;;;;;;;47.00;40.50;;;;;-0.52;90.45;102738.72;5100871;27;45503;-72
2024/01/11 03:56:30;;;;;;;;;36.50;32.00;;;;;-0.34;89.86;102774.75;5098978;27;45459;-72
2024/01/11 03:58:55;;;;;;;;;46.00;38.50;;;;;-0.40;90.95;102756.41;5117154;27;46822;-72
2024/01/11 04:01:20;;;;;;;;;58.00;43.50;;;;;-0.33;90.76;102777.41;5112554;27;45311;-72
2024/01/11 04:03:46;;;;;;;;;54.25;43.00;;;;;-0.61;89.97;102733.25;5101733;27;45337;-71
2024/01/11 04:06:21;;;;;;;;;52.75;45.00;;;;;-0.67;88.94;102727.88;5101675;27;45369;-71
2024/01/11 04:08:48;;;;;;;;;51.00;38.25;;;;;-0.70;91.19;102728.69;5106379;27;47573;-72
2024/01/11 04:11:13;;;;;;;;;55.25;44.50;;;;;-0.50;91.96;102769.97;5092717;27;45419;-72
2024/01/11 04:13:39;;;;;;;;;58.75;43.75;;;;;-0.54;92.38;102780.25;5092805;27;45557;-72
2024/01/11 04:16:07;;;;;;;;;62.50;45.50;;;;;-0.54;91.38;102777.66;5099124;27;45313;-72
2024/01/11 04:18:32;;;;;;;;;45.25;41.75;;;;;-0.71;91.93;102758.09;5098142;27;46204;-72
2024/01/11 04:20:58;;;;;;;;;48.00;39.75;;;;;-0.47;91.32;102796.91;5100690;27;45250;-71
2024/01/11 04:23:24;;;;;;;;;46.75;36.00;;;;;-0.58;89.88;102799.19;5090160;27;46024;-72
2024/01/11 04:25:51;;;;;;;;;53.25;40.00;;;;;-0.50;90.35;102804.63;5102901;27;45757;-72
2024/01/11 04:28:16;;;;;;;;;54.50;46.25;;;;;-0.55;90.20;102791.47;5095419;27;46018;-72
2024/01/11 04:30:42;;;;;;;;;53.50;42.00;;;;;-0.54;91.45;102793.25;5095154;27;45316;-72
2024/01/11 04:33:08;;;;;;;;;51.75;42.00;;;;;-0.59;90.82;102780.97;5117482;27;45708;-71
2024/01/11 04:35:33;;;;;;;;;50.00;42.50;;;;;-0.45;90.17;102807.34;5106311;27;45381;-71
2024/01/11 04:37:58;;;;;;;;;46.50;40.50;;;;;-0.68;90.55;102771.16;5097323;27;45455;-71
2024/01/11 04:40:24;;;;;;;;;45.00;40.25;;;;;-0.48;90.13;102802.94;5100067;27;45347;-71
2024/01/11 04:42:49;;;;;;;;;50.25;42.25;;;;;-0.41;89.98;102811.81;5086846;27;45542;-71
2024/01/11 04:45:14;;;;;;;;;51.75;41.00;;;;;-0.50;89.15;102796.84;5100550;27;45388;-71
2024/01/11 04:47:40;;;;;;;;;50.50;42.25;;;;;-0.43;89.05;102805.69;5095578;27;46463;-71
2024/01/11 04:50:06;;;;;;;;;50.00;41.75;;;;;-0.41;88.84;102804.00;5084912;27;45305;-71
2024/01/11 04:52:32;;;;;;;;;52.25;42.75;;;;;-0.33;89.07;102812.94;5097099;27;45602;-72
2024/01/11 04:54:57;;;;;;;;;50.50;44.50;;;;;-0.35;89.15;102809.38;5100987;27;45258;-71
2024/01/11 04:57:23;;;;;;;;;37.00;32.50;;;;;-0.63;88.05;102764.41;5096600;27;46631;-71
2024/01/11 04:59:48;;;;;;;;;44.00;36.50;;;;;-0.79;89.79;102744.00;5095938;27;45262;-72
2024/01/11 05:02:13;;;;;;;;;48.75;39.75;;;;;-0.57;89.40;102784.47;5087556;27;45312;-71
2024/01/11 05:04:39;;;;;;;;;57.25;43.25;;;;;-0.40;88.69;102806.66;5099535;27;45282;-71
2024/01/11 05:07:04;;;;;;;;;64.25;46.25;;;;;-0.41;88.73;102819.59;5100822;27;45407;-71
2024/01/11 05:09:29;;;;;;;;;53.25;41.75;;;;;-0.39;89.24;102820.53;5096268;27;45240;-71
2024/01/11 05:11:55;;;;;;;;;54.00;44.50;;;;;-0.39;89.41;102818.81;5090372;27;45330;-71
2024/01/11 05:14:20;;;;;;;;;42.25;41.25;;;;;-0.45;89.44;102802.16;5092776;27;46048;-71
2024/01/11 05:16:45;;;;;;;;;52.50;43.75;;;;;-0.41;89.82;102804.00;5088355;27;46169;-71
2024/01/11 05:19:11;;;;;;;;;45.25;40.50;;;;;-0.36;89.30;102828.44;5085324;27;45222;-71
2024/01/11 05:21:36;;;;;;;;;53.75;46.25;;;;;-0.34;89.82;102822.44;5094240;27;45195;-71
2024/01/11 05:24:01;;;;;;;;;44.50;42.00;;;;;-0.58;89.72;102782.72;5091844;27;45332;-71
2024/01/11 05:26:27;;;;;;;;;61.00;45.00;;;;;-0.56;89.07;102781.06;5095032;27;46393;-71
2024/01/11 05:28:52;;;;;;;;;42.25;33.50;;;;;-0.62;88.73;102770.47;5091412;27;45278;-71
2024/01/11 05:31:18;;;;;;;;;44.50;33.75;;;;;-0.36;88.64;102807.63;5099258;27;45399;-71
2024/01/11 05:33:43;;;;;;;;;57.25;43.25;;;;;-0.35;89.82;102812.88;5097375;27;45304;-71
2024/01/11 05:36:09;;;;;;;;;51.25;42.25;;;;;-0.34;89.80;102818.94;5090137;27;45399;-71
2024/01/11 05:38:35;;;;;;;;;55.75;45.75;;;;;-0.33;89.59;102810.31;5099409;27;45296;-71
2024/01/11 05:41:01;;;;;;;;;58.00;42.00;;;;;-0.60;89.50;102782.69;5093213;27;45259;-71
2024/01/11 05:43:26;;;;;;;;;45.00;39.25;;;;;-0.44;90.08;102838.59;5096602;27;45261;-71
2024/01/11 05:45:51;;;;;;;;;42.75;42.00;;;;;-0.39;90.94;102844.78;5098047;27;45337;-71
2024/01/11 05:48:17;;;;;;;;;40.00;35.50;;;;;-0.47;90.22;102829.81;5099315;27;45924;-71
2024/01/11 05:50:46;;;;;;;;;54.50;39.50;;;;;-0.45;89.96;102835.94;5098057;27;45349;-72
2024/01/11 05:53:12;;;;;;;;;63.50;43.75;;;;;-0.77;90.66;102802.06;5097558;27;45396;-72
2024/01/11 05:55:38;;;;;;;;;54.00;43.50;;;;;-0.52;92.28;102840.06;5097809;27;46374;-72
2024/01/11 05:58:04;;;;;;;;;50.25;42.75;;;;;-0.57;92.49;102833.84;5099627;27;45506;-72
2024/01/11 06:00:29;;;;;;;;;41.00;33.50;;;;;-0.55;93.13;102852.97;5100591;27;45252;-72
2024/01/11 06:02:54;;;;;;;;;47.75;40.50;;;;;-0.64;93.99;102835.38;5085459;27;45386;-71
2024/01/11 06:05:20;;;;;;;;;51.50;46.25;;;;;-0.64;91.61;102843.19;5097554;27;46388;-71
2024/01/11 06:07:45;;;;;;;;;46.00;38.50;;;;;-0.92;93.23;102813.69;5103540;27;45462;-71
2024/01/11 06:10:10;;;;;;;;;50.50;43.50;;;;;-0.72;91.72;102844.63;5119811;27;45234;-72
2024/01/11 06:12:36;;;;;;;;;48.00;38.50;;;;;-0.73;94.94;102853.28;5101158;27;45249;-71
2024/01/11 06:15:02;;;;;;;;;51.25;41.25;;;;;-0.91;94.33;102839.69;5090114;27;46967;-71
2024/01/11 06:17:27;;;;;;;;;53.25;44.25;;;;;-0.89;94.28;102848.44;5085518;27;45375;-71
2024/01/11 06:19:53;;;;;;;;;45.00;32.00;;;;;-0.72;94.14;102887.94;5099505;27;45245;-71
2024/01/11 06:22:19;;;;;;;;;38.25;32.25;;;;;-0.79;94.72;102876.47;5103088;27;45187;-71
2024/01/11 06:24:44;;;;;;;;;51.75;41.25;;;;;-0.76;94.09;102889.56;5088490;27;47132;-72
2024/01/11 06:27:09;;;;;;;;;50.25;41.75;;;;;-0.81;94.36;102879.84;5093429;27;45343;-72
2024/01/11 06:29:35;;;;;;;;;40.50;38.25;;;;;-1.10;96.81;102829.56;5092489;27;45231;-72
2024/01/11 06:32:00;;;;;;;;;58.50;42.50;;;;;-0.96;94.86;102856.84;5100066;27;45445;-72
2024/01/11 06:34:26;;;;;;;;;52.50;44.00;;;;;-0.79;95.33;102889.47;5097177;27;45257;-72
2024/01/11 06:36:52;;;;;;;;;45.50;39.75;;;;;-0.84;95.54;102865.03;5101883;27;45216;-71
2024/01/11 06:39:17;;;;;;;;;42.75;35.50;;;;;-0.84;96.15;102879.72;5104056;27;45472;-71
2024/01/11 06:41:43;;;;;;;;;63.00;48.00;;;;;-0.80;96.25;102912.78;5098030;27;45392;-72
2024/01/11 06:44:08;;;;;;;;;52.25;42.25;;;;;-0.84;97.42;102918.69;5097257;27;45462;-71
2024/01/11 06:46:35;;;;;;;;;45.25;41.50;;;;;-0.82;98.75;102917.91;5098140;27;45401;-71
2024/01/11 06:49:01;;;;;;;;;59.25;41.00;;;;;-0.81;98.71;102917.09;5091510;27;45301;-72
2024/01/11 06:51:26;;;;;;;;;39.25;34.50;;;;;-0.90;97.86;102927.19;5095030;27;45388;-71
2024/01/11 06:53:52;;;;;;;;;45.75;38.75;;;;;-1.16;96.52;102876.09;5101593;27;48167;-71
2024/01/11 06:56:19;;;;;;;;;52.25;44.75;;;;;-0.84;98.66;102932.56;5092983;27;45411;-71
2024/01/11 06:58:45;;;;;;;;;44.50;35.25;;;;;-0.93;99.43;102926.19;5097901;27;45550;-71
2024/01/11 07:01:11;;;;;;;;;51.50;42.25;;;;;-0.86;98.06;102943.75;5093353;27;45417;-71
2024/01/11 07:03:37;;;;;;;;;50.00;41.75;;;;;-0.86;97.41;102943.75;5096950;27;45458;-71
2024/01/11 07:06:03;;;;;;;;;57.00;48.00;;;;;-0.90;98.11;102937.56;5100337;27;45430;-71
2024/01/11 07:08:29;;;;;;;;;51.25;42.25;;;;;-1.13;97.59;102896.94;5100398;27;45488;-71
2024/01/11 07:10:54;;;;;;;;;51.75;37.50;;;;;-0.99;97.29;102947.66;5101826;27;45475;-71
2024/01/11 07:13:20;;;;;;;;;52.75;43.75;;;;;-1.06;97.73;102923.19;5098688;27;46151;-71
2024/01/11 07:15:45;;;;;;;;;47.25;40.25;;;;;-1.02;97.70;102916.38;5100572;27;45304;-72
2024/01/11 07:18:12;;;;;;;;;43.75;40.50;;;;;-0.93;96.93;102932.28;5083428;27;45316;-72
2024/01/11 07:20:37;;;;;;;;;53.00;42.50;;;;;-0.96;94.08;102933.88;5095463;27;45247;-72
2024/01/11 07:23:02;;;;;;;;;50.00;43.00;;;;;-1.05;97.02;102935.31;5088307;27;46358;-72
2024/01/11 07:25:28;;;;;;;;;51.00;39.50;;;;;-1.01;97.08;102949.28;5111273;27;45245;-72
2024/01/11 07:27:53;;;;;;;;;50.00;40.25;;;;;-1.25;97.77;102910.41;5093195;27;45314;-72
2024/01/11 07:30:19;;;;;;;;;44.25;30.75;;;;;-1.24;98.51;102913.84;5118720;27;45608;-72
2024/01/11 07:32:44;;;;;;;;;42.50;34.75;;;;;-1.23;97.79;102931.22;5117208;27;47910;-72
2024/01/11 07:35:10;;;;;;;;;53.75;42.50;;;;;-1.01;97.90;102970.06;5101493;27;45416;-72
2024/01/11 07:37:36;;;;;;;;;48.25;42.00;;;;;-1.01;99.44;102974.41;5099687;27;45269;-72
2024/01/11 07:40:02;;;;;;;;;40.00;31.25;;;;;-1.46;98.37;102896.66;5102362;27;45377;-71
2024/01/11 07:42:28;;;;;;;;;41.50;32.50;;;;;-1.12;99.87;102953.25;5083777;27;46723;-72
2024/01/11 07:44:53;;;;;;;;;59.00;46.00;;;;;-1.02;99.56;102970.91;5100941;27;45439;-72
2024/01/11 07:47:18;;;;;;;;;55.00;43.75;;;;;-1.01;100.00;102966.59;5101938;27;45242;-74
2024/01/11 07:49:44;;;;;;;;;39.75;33.75;;;;;-1.00;100.00;102966.66;5105536;27;46330;-72
2024/01/11 07:52:09;;;;;;;;;54.25;42.75;;;;;-1.00;99.25;102971.84;5100448;27;45457;-72
2024/01/11 07:54:35;;;;;;;;;55.50;44.50;;;;;-1.21;99.93;102932.16;5098778;27;45524;-72
2024/01/11 07:57:02;;;;;;;;;56.00;42.75;;;;;-1.01;99.59;102958.81;5092129;27;45317;-72
2024/01/11 07:59:32;;;;;;;;;54.25;40.25;;;;;-0.93;99.07;102980.72;5100008;27;45423;-72
2024/01/11 08:01:57;;;;;;;;;51.75;44.75;;;;;-0.91;99.29;102973.84;5099653;27;45609;-72
2024/01/11 08:04:23;;;;;;;;;46.00;41.00;;;;;-0.94;98.05;102977.25;5108672;27;45366;-72
2024/01/11 08:06:48;;;;;;;;;54.50;43.75;;;;;-1.20;97.73;102936.50;5122034;27;45964;-72
2024/01/11 08:09:13;;;;;;;;;53.75;44.50;;;;;-0.92;96.72;102980.78;5100699;27;45328;-71
2024/01/11 08:11:41;;;;;;;;;52.75;43.25;;;;;-0.88;97.99;102989.56;5104801;27;46883;-73
2024/01/11 08:14:06;;;;;;;;;49.50;42.50;;;;;-1.09;96.65;102959.44;5095753;27;45508;-73
2024/01/11 08:16:31;;;;;;;;;61.25;48.75;;;;;-0.83;99.10;102988.00;5101561;27;45372;-73
2024/01/11 08:18:57;;;;;;;;;50.75;41.75;;;;;-0.81;98.88;102982.03;5099532;27;45483;-73
2024/01/11 08:21:22;;;;;;;;;47.50;42.75;;;;;-0.73;98.40;102990.97;5101003;27;45628;-73
2024/01/11 08:23:48;;;;;;;;;50.25;35.25;;;;;-0.82;96.20;102975.06;5082151;27;45464;-72
2024/01/11 08:26:21;;;;;;;;;48.75;39.75;;;;;-1.03;98.04;102925.00;5100247;27;45253;-72
2024/01/11 08:28:46;;;;;;;;;62.50;47.25;;;;;-0.69;97.84;102990.22;5085252;27;45569;-72
2024/01/11 08:31:12;;;;;;;;;42.75;42.25;;;;;-0.63;98.21;102992.16;5100868;27;45424;-72
2024/01/11 08:33:37;;;;;;;;;53.75;44.25;;;;;-0.58;97.72;102983.69;5087469;27;45302;-72
2024/01/11 08:36:04;;;;;;;;;54.75;43.25;;;;;-0.57;96.45;102984.56;5100629;27;45187;-73
2024/01/11 08:38:30;;;;;;;;;60.25;48.25;;;;;-0.60;96.12;102958.47;5101263;27;45225;-72
2024/01/11 08:40:55;;;;;;;;;53.75;44.00;;;;;-0.25;95.20;102999.50;5100650;27;45585;-72
2024/01/11 08:43:20;;;;;;;;;47.00;39.50;;;;;-0.13;94.37;103005.06;5100657;27;45343;-72
2024/01/11 08:45:46;;;;;;;;;41.75;36.75;;;;;-0.06;95.68;103013.94;5101535;27;45336;-72
2024/01/11 08:48:12;;;;;;;;;52.25;42.75;;;;;-0.03;94.90;102999.31;5093136;27;45632;-72
2024/01/11 08:50:37;;;;;;;;;45.00;39.25;;;;;0.04;94.26;103000.41;5089400;27;45461;-72
2024/01/11 08:53:03;;;;;;;;;49.50;42.00;;;;;0.04;93.31;102996.91;5093484;27;45642;-72
2024/01/11 08:55:28;;;;;;;;;46.50;40.25;;;;;-0.03;92.22;102970.72;5091591;27;45339;-72
2024/01/11 08:57:54;;;;;;;;;52.75;43.00;;;;;0.22;92.30;103000.09;5092236;27;45411;-72
2024/01/11 09:00:19;;;;;;;;;42.50;36.00;;;;;0.26;91.25;103005.41;5100360;27;45288;-72
2024/01/11 09:02:45;;;;;;;;;49.25;38.50;;;;;0.25;90.54;102980.25;5087383;27;45342;-71
2024/01/11 09:05:11;;;;;;;;;49.25;39.75;;;;;0.46;91.54;103001.69;5092431;27;45419;-71
2024/01/11 09:07:37;;;;;;;;;59.50;43.00;;;;;0.29;90.68;102963.91;5098931;27;45412;-71
2024/01/11 09:10:03;;;;;;;;;62.00;47.25;;;;;0.51;90.10;102994.03;5096685;27;46369;-71
2024/01/11 09:12:28;;;;;;;;;61.75;46.25;;;;;0.63;90.59;103002.19;5090807;27;45248;-71
2024/01/11 09:14:54;;;;;;;;;64.75;47.50;;;;;0.69;90.80;103004.09;5095177;27;45271;-71
2024/01/11 09:17:20;;;;;;;;;64.00;50.75;;;;;0.77;90.66;103024.28;5094063;27;45265;-71
2024/01/11 09:19:45;;;;;;;;;62.25;49.50;;;;;0.74;89.99;103012.91;5106585;27;47270;-71
2024/01/11 09:22:10;;;;;;;;;69.50;50.75;;;;;0.82;89.47;103021.84;5089496;27;45285;-71
2024/01/11 09:24:36;;;;;;;;;60.50;47.50;;;;;0.74;88.32;103015.50;5092450;27;45252;-71
2024/01/11 09:27:04;;;;;;;;;51.75;40.75;;;;;0.77;88.42;103018.19;5096470;27;45302;-71
2024/01/11 09:29:29;;;;;;;;;62.00;47.00;;;;;0.63;87.94;102993.47;5099860;27;46054;-71
2024/01/11 09:31:55;;;;;;;;;67.50;52.50;;;;;0.76;87.72;103014.72;5094246;27;45291;-71
2024/01/11 09:34:20;;;;;;;;;61.25;47.75;;;;;0.76;87.38;103004.28;5093820;27;45323;-71
2024/01/11 09:36:45;;;;;;;;;66.00;47.00;;;;;0.65;86.83;102984.91;5096065;27;45389;-71
2024/01/11 09:39:13;;;;;;;;;51.25;43.00;;;;;0.83;87.40;103015.75;5081594;27;46531;-71
2024/01/11 09:41:43;;;;;;;;;33.50;29.75;;;;;0.93;86.72;103017.78;5089057;27;45388;-71
2024/01/11 09:44:08;;;;;;;;;53.50;44.25;;;;;0.61;85.92;102966.53;5096297;27;45255;-71
2024/01/11 09:46:34;;;;;;;;;53.50;41.00;;;;;0.97;85.73;103019.63;5099490;27;45639;-71
2024/01/11 09:49:02;;;;;;;;;51.25;41.50;;;;;0.86;83.73;103006.31;5097946;27;46983;-70
2024/01/11 09:51:29;;;;;;;;;57.25;42.75;;;;;0.98;83.15;103008.38;5089305;27;45237;-70
2024/01/11 09:53:58;;;;;;;;;51.75;43.00;;;;;1.11;83.17;103033.06;5093430;27;45266;-71
2024/01/11 09:56:27;;;;;;;;;44.25;41.25;;;;;0.97;81.52;103002.28;5099881;27;45255;-70
2024/01/11 09:58:53;;;;;;;;;43.75;41.75;;;;;1.13;80.98;103005.28;5115284;27;47151;-70
2024/01/11 10:01:19;;;;;;;;;59.25;45.25;;;;;1.16;80.50;102990.63;5090883;27;45322;-70
2024/01/11 10:03:46;;;;;;;;;57.25;43.00;;;;;1.23;79.80;103005.59;5095533;27;45542;-70
2024/01/11 10:06:12;;;;;;;;;66.50;46.75;;;;;0.77;79.08;102929.66;5100257;27;45277;-70
2024/01/11 10:08:37;;;;;;;;;52.50;44.00;;;;;1.05;80.08;102977.31;5099228;27;46299;-70
2024/01/11 10:11:03;;;;;;;;;44.75;40.50;;;;;1.01;78.33;102978.06;5099899;27;45366;-70
2024/01/11 10:13:31;;;;;;;;;53.50;42.50;;;;;1.30;78.98;103017.94;5095715;27;45325;-70
2024/01/11 10:16:09;;;;;;;;;58.75;44.00;;;;;1.13;78.75;102982.72;5090310;27;45338;-70
2024/01/11 10:18:36;;;;;;;;;62.00;43.00;;;;;1.33;78.32;103005.00;5099135;27;46167;-70
2024/01/11 10:21:02;;;;;;;;;33.00;28.75;;;;;1.39;76.72;103015.56;5086202;27;45399;-70
2024/01/11 10:23:31;;;;;;;;;50.00;42.25;;;;;1.38;77.30;103003.38;5083543;27;45616;-70
2024/01/11 10:25:57;;;;;;;;;60.75;43.75;;;;;1.44;78.09;103000.91;5086321;27;45348;-70
2024/01/11 10:28:24;;;;;;;;;53.50;43.25;;;;;1.53;77.44;102992.47;5082480;27;46125;-70
2024/01/11 10:30:52;;;;;;;;;60.50;43.75;;;;;1.11;75.92;102915.78;5085803;27;45399;-70
2024/01/11 10:33:20;;;;;;;;;48.50;43.00;;;;;1.55;75.04;102986.44;5093105;27;45607;-70
2024/01/11 10:35:46;;;;;;;;;57.50;44.50;;;;;1.55;74.81;102980.31;5089983;27;45456;-70
2024/01/11 10:38:12;;;;;;;;;61.00;45.25;;;;;1.43;75.80;102947.03;5080498;27;46155;-70
2024/01/11 10:40:37;;;;;;;;;52.00;38.75;;;;;1.71;75.89;102981.56;5089597;27;45305;-70
2024/01/11 10:43:06;;;;;;;;;54.25;40.50;;;;;1.44;75.68;102933.13;5085657;27;45329;-70
2024/01/11 10:45:38;;;;;;;;;57.25;43.00;;;;;1.79;74.78;102980.94;5090676;27;45231;-70
2024/01/11 10:48:15;;;;;;;;;61.25;46.25;;;;;1.80;74.91;102979.22;5104695;27;46971;-70
2024/01/11 10:50:45;;;;;;;;;52.75;44.75;;;;;1.87;74.76;103001.94;5088512;27;45336;-70
2024/01/11 10:53:35;;;;;;;;;60.50;45.25;;;;;1.90;73.88;103002.03;5101644;27;45513;-69
2024/01/11 10:56:01;;;;;;;;;60.50;47.75;;;;;1.95;73.78;103003.91;5096443;27;45574;-69
2024/01/11 10:58:27;;;;;;;;;47.50;41.25;;;;;1.89;73.43;102988.13;5086954;27;46163;-70
2024/01/11 11:00:57;;;;;;;;;46.00;38.50;;;;;1.99;73.67;103010.97;5101730;27;45268;-70
2024/01/11 11:03:26;;;;;;;;;57.25;44.25;;;;;2.01;73.22;102998.84;5092309;27;45546;-70
2024/01/11 11:05:55;;;;;;;;;58.25;44.00;;;;;1.53;72.38;102902.09;5099357;27;45207;-70